Stations météo

réclame
Mon MeteoGroup
Blahammaren A, Suède (2210): Température de l'air & dewpoint: 19.02.2018 06:00:00 - 25.02.2018 06:00:00 (CET)Blahammaren A, Suède (2210): Vitesse du vent & gusts: 19.02.2018 06:00:00 - 25.02.2018 06:00:00 (CET)Blahammaren A, Suède (2210): Direction du vent: 19.02.2018 06:00:00 - 25.02.2018 06:00:00 (CET)
Date & Time tt [°C] td [°C] ff [km/h] ff [knt] fx [km/h] fx [knt] dd
25.02.2018 06:00:00 -16,0 -17,5 47 25 58 31 SE
25.02.2018 05:00:00 -15,5 -17,0 49 26 59 32 SE
25.02.2018 04:00:00 -15,1 -16,5 42 23 58 32 SE
25.02.2018 03:00:00 -15,1 -16,5 49 26 60 32 SE
25.02.2018 02:00:00 -14,9 -16,3 51 28 59 32 SE
25.02.2018 01:00:00 -14,7 -16,1 50 27 63 34 SE
25.02.2018 00:00:00 -14,5 -15,9 53 29 62 33 SE
24.02.2018 23:00:00 -14,4 -15,7 49 27 59 32 SE
24.02.2018 22:00:00 -14,2 -15,5 44 24 53 28 SSE
24.02.2018 21:00:00 -13,5 -14,7 35 19 41 22 SSE
24.02.2018 20:00:00 -12,5 -13,5 19 10 27 14 SSE
24.02.2018 19:00:00 -11,9 -12,8 18 10 22 12 ESE
24.02.2018 18:00:00 -9,9 -10,3 3 1 10 5 E
24.02.2018 17:00:00 -9,9 -10,4 3 2 15 8 NE
24.02.2018 16:00:00 -7,8 -7,8 16 9 25 14 NW
24.02.2018 15:00:00 -7,0 -7,0 16 8 23 12 NW
24.02.2018 14:00:00 -6,3 -6,3 13 7 16 9 WNW
24.02.2018 13:00:00 -5,6 -5,6 3 2 8 5 SSW
24.02.2018 12:00:00 -8,6 -8,7 3 1 14 7 NE
24.02.2018 11:00:00 -9,4 -9,8 6 3 15 8 SSW
24.02.2018 10:00:00 -9,8 -10,3 5 3 32 17 SW
24.02.2018 09:00:00 -9,7 -10,1 20 11 31 17 S
24.02.2018 08:00:00 -9,7 -10,1 12 7 39 21 S
24.02.2018 07:00:00 -9,8 -10,2 17 9 38 20 S
24.02.2018 06:00:00 -9,5 -9,9 9 5 39 21 SSW
24.02.2018 05:00:00 -9,6 -10,0 20 11 39 21 S
24.02.2018 04:00:00 -9,6 -10,0 23 12 37 20 S
24.02.2018 03:00:00 -9,8 -10,2 26 14 37 20 S
24.02.2018 02:00:00 -9,6 -10,0 23 13 37 20 S
24.02.2018 01:00:00 -9,6 -10,0 26 14 32 17 S
24.02.2018 00:00:00 -8,8 -9,1 18 10 29 16 S
23.02.2018 23:00:00 -9,7 -10,1 24 13 29 16 S
23.02.2018 22:00:00 -10,0 -10,5 23 13 32 17 S
23.02.2018 21:00:00 -9,6 -10,0 25 13 30 16 S
23.02.2018 20:00:00 -10,0 -10,5 26 14 31 17 S
23.02.2018 19:00:00 -10,0 -10,5 25 13 29 15 S
23.02.2018 18:00:00 -9,6 -10,1 22 12 29 16 S
23.02.2018 17:00:00 -8,8 -9,1 22 12 27 14 S
23.02.2018 16:00:00 -8,8 -9,1 21 11 23 12 S
23.02.2018 15:00:00 -8,1 -8,2 19 10 25 14 S
23.02.2018 14:00:00 -8,0 -8,1 17 9 25 13 SSE
23.02.2018 13:00:00 -7,1 -7,1 15 8 18 10 S
23.02.2018 12:00:00 -6,3 -6,3 1 1 3 2 ENE
23.02.2018 11:00:00 -6,2 -6,2 1 1 4 2 NE
23.02.2018 10:00:00 -6,5 -6,5 2 1 16 9 S
23.02.2018 09:00:00 -6,2 -6,2 13 7 17 9 W
23.02.2018 08:00:00 -6,3 -6,3 10 5 15 8 WNW
23.02.2018 07:00:00 -6,3 -6,3 11 6 20 11 W
23.02.2018 06:00:00 -6,3 -6,3 14 8 21 11 W
23.02.2018 05:00:00 -6,0 -6,0 17 9 22 12 WNW
23.02.2018 04:00:00 -5,8 -5,8 13 7 16 9 WNW
23.02.2018 03:00:00 -5,7 -5,7 16 9 21 11 WNW
23.02.2018 02:00:00 -5,4 -5,4 10 5 17 9 W
23.02.2018 01:00:00 -5,3 -5,3 16 8 23 13 W
23.02.2018 00:00:00 -5,3 -5,3 18 10 27 15 W
22.02.2018 23:00:00 -5,1 -5,1 14 8 19 11 WNW
22.02.2018 22:00:00 -5,2 -5,2 16 8 19 10 NW
22.02.2018 21:00:00 -5,4 -5,4 9 5 16 9 NW
22.02.2018 20:00:00 -5,4 -5,4 9 5 22 12 NW
22.02.2018 19:00:00 -5,3 -5,3 16 8 24 13 WNW
22.02.2018 18:00:00 -5,2 -5,2 19 10 36 19 WNW
22.02.2018 17:00:00 -5,0 -5,0 - - - - -
22.02.2018 16:00:00 -4,6 -4,6 - - - - -
22.02.2018 15:00:00 -4,5 -4,5 - - - - -
22.02.2018 14:00:00 -4,3 -4,3 - - - - -
22.02.2018 13:00:00 -4,1 -4,1 26 14 37 20 WNW
22.02.2018 12:00:00 -4,0 -4,0 17 9 27 15 W
22.02.2018 11:00:00 -4,3 -4,3 16 8 22 12 W
22.02.2018 10:00:00 -4,2 -4,2 14 8 27 15 W
22.02.2018 09:00:00 -4,5 -4,5 18 10 23 12 W
22.02.2018 08:00:00 -4,8 -4,8 14 8 22 12 W
22.02.2018 07:00:00 -5,0 -5,0 17 9 - - WNW
22.02.2018 06:00:00 -5,6 -5,6 - - - - -
22.02.2018 05:00:00 -5,2 -5,2 18 10 24 13 NW
22.02.2018 04:00:00 -5,1 -5,1 16 9 29 16 WNW
22.02.2018 03:00:00 -5,4 -5,4 22 12 29 16 WNW
22.02.2018 02:00:00 -5,5 -5,5 24 13 34 18 WNW
22.02.2018 01:00:00 -5,8 -5,8 19 10 27 15 NNW
22.02.2018 00:00:00 -5,7 -5,7 21 11 31 17 NW
21.02.2018 23:00:00 -5,7 -5,7 19 11 34 19 WNW
21.02.2018 22:00:00 -5,3 -5,3 24 13 38 21 WNW
21.02.2018 21:00:00 -5,2 -5,2 32 17 45 24 W
21.02.2018 20:00:00 -5,3 -5,3 33 18 46 25 WNW
21.02.2018 19:00:00 -5,6 -5,6 32 18 52 28 WNW
21.02.2018 18:00:00 -5,3 -5,3 34 18 50 27 WNW
21.02.2018 17:00:00 -6,1 -6,1 29 16 47 25 WNW
21.02.2018 16:00:00 -6,0 -6,0 26 14 45 24 WNW
21.02.2018 15:00:00 -5,9 -5,9 23 12 41 22 W
21.02.2018 14:00:00 -7,5 -7,5 11 6 29 16 SW
21.02.2018 13:00:00 -8,3 -8,4 21 11 34 18 S
21.02.2018 12:00:00 -8,5 -8,6 29 15 37 20 S
21.02.2018 11:00:00 -8,3 -8,4 26 14 36 20 S
21.02.2018 10:00:00 -8,6 -8,7 26 14 34 18 S
21.02.2018 09:00:00 -9,0 -9,1 28 15 35 19 S
21.02.2018 08:00:00 -9,4 -9,7 29 16 36 19 S
21.02.2018 07:00:00 -8,9 -9,0 28 15 32 18 S
21.02.2018 06:00:00 -8,7 -8,8 22 12 27 15 S
21.02.2018 05:00:00 -8,4 -8,4 18 10 22 12 S
21.02.2018 04:00:00 -8,5 -8,6 12 6 18 10 SSW
21.02.2018 03:00:00 -10,0 -10,3 8 4 16 8 SSW
21.02.2018 02:00:00 -8,9 -9,0 9 5 16 9 S
21.02.2018 01:00:00 -8,3 -8,4 9 5 21 11 WSW
21.02.2018 00:00:00 -7,8 -7,8 16 9 22 12 W
20.02.2018 23:00:00 -7,7 -7,7 15 8 24 13 WNW
20.02.2018 22:00:00 -8,6 -8,6 16 8 22 12 W
20.02.2018 21:00:00 -8,2 -8,2 9 5 20 11 WSW
20.02.2018 20:00:00 -8,7 -8,7 7 4 14 7 WSW
20.02.2018 19:00:00 -7,8 -7,8 6 4 16 9 WNW
20.02.2018 18:00:00 -8,0 -8,0 10 5 16 8 W
20.02.2018 17:00:00 -8,2 -8,2 11 6 24 13 NW
20.02.2018 16:00:00 -8,0 -8,0 19 11 31 17 NW
20.02.2018 15:00:00 -8,3 -8,4 14 7 25 13 WNW
20.02.2018 14:00:00 -8,8 -9,1 15 8 24 13 WNW
20.02.2018 13:00:00 -11,6 -12,5 8 4 20 11 SW
20.02.2018 12:00:00 -11,4 -12,3 13 7 23 13 S
20.02.2018 11:00:00 -11,7 -12,6 20 11 29 16 S
20.02.2018 10:00:00 -11,7 -12,6 20 11 28 15 S
20.02.2018 09:00:00 -12,0 -12,9 24 13 34 19 S
20.02.2018 08:00:00 -12,5 -13,4 27 15 37 20 S
20.02.2018 07:00:00 -12,7 -13,6 26 14 33 18 S
20.02.2018 06:00:00 -13,5 -14,7 29 16 40 21 S
20.02.2018 05:00:00 -12,9 -13,9 30 16 36 20 S
20.02.2018 04:00:00 -12,9 -13,8 28 15 42 23 SSE
20.02.2018 03:00:00 -12,7 -13,6 34 18 41 22 S
20.02.2018 02:00:00 -13,1 -14,1 33 18 45 25 SSE
20.02.2018 01:00:00 -11,9 -12,7 27 15 39 21 SSE
20.02.2018 00:00:00 -13,7 -14,9 22 12 34 19 SE
19.02.2018 23:00:00 -13,6 -14,6 29 16 34 18 ESE
19.02.2018 22:00:00 -13,0 -13,9 27 15 35 19 ESE
19.02.2018 21:00:00 -13,8 -14,8 23 13 41 22 ESE
19.02.2018 20:00:00 -12,6 -13,5 35 19 44 24 SE
19.02.2018 19:00:00 -12,4 -13,3 27 15 36 20 SE
19.02.2018 18:00:00 -12,7 -13,6 29 16 37 20 SE
19.02.2018 17:00:00 -12,2 -13,1 32 17 44 24 SE
19.02.2018 16:00:00 -11,4 -12,2 39 21 48 26 SE
19.02.2018 15:00:00 -11,1 -11,9 39 21 44 24 SE
19.02.2018 14:00:00 -10,7 -11,3 37 20 46 25 SE
19.02.2018 13:00:00 -10,5 -11,1 30 16 46 25 SE
19.02.2018 12:00:00 -10,8 -11,6 36 20 45 24 SE
19.02.2018 11:00:00 -11,1 -11,9 34 18 39 21 SE
19.02.2018 10:00:00 -11,1 -11,9 32 17 41 22 SE
19.02.2018 09:00:00 -11,4 -12,0 37 20 45 25 SE
19.02.2018 08:00:00 -11,5 -12,3 35 19 45 24 SE
19.02.2018 07:00:00 -11,0 -11,5 36 19 42 23 SE
19.02.2018 06:00:00 -11,5 -12,1 29 16 37 20 SE

tt = Température de l'air
td = dewpoint
ff = Vitesse du vent
fx = gusts
dd = Direction du vent

stations d'obs. à proximité